createdAt,value
2022-12-18T00:03:01.438Z,40.22
2022-12-18T00:06:07.291Z,32.40
2022-12-18T00:09:12.988Z,29.63
2022-12-18T00:12:21.346Z,40.65
2022-12-18T00:15:31.122Z,34.75
2022-12-18T00:18:58.409Z,39.47
2022-12-18T00:22:03.639Z,25.73
2022-12-18T00:25:09.593Z,41.30
2022-12-18T00:28:17.813Z,33.25
2022-12-18T00:31:25.020Z,29.80
2022-12-18T00:34:30.414Z,37.03
2022-12-18T00:37:42.049Z,24.23
2022-12-18T00:40:48.336Z,34.88
2022-12-18T00:43:53.754Z,45.15
2022-12-18T00:46:59.117Z,33.80
2022-12-18T00:50:05.785Z,27.85
2022-12-18T00:53:17.721Z,44.28
2022-12-18T00:56:26.469Z,37.30
2022-12-18T00:59:35.197Z,41.83
2022-12-18T01:02:42.651Z,36.63
2022-12-18T01:05:48.176Z,24.67
2022-12-18T01:08:55.221Z,38.88
2022-12-18T01:12:02.569Z,35.67
2022-12-18T01:15:12.001Z,28.55
2022-12-18T01:18:18.668Z,29.13
2022-12-18T01:21:25.480Z,32.17
2022-12-18T01:24:31.141Z,27.15
2022-12-18T01:27:37.433Z,33.65
2022-12-18T01:30:45.466Z,39.35
2022-12-18T01:33:57.310Z,32.70
2022-12-18T01:37:02.752Z,26.17
2022-12-18T01:40:08.955Z,19.25
2022-12-18T01:43:14.391Z,28.30
2022-12-18T01:46:26.081Z,29.77
2022-12-18T01:49:32.444Z,36.00
2022-12-18T01:52:38.676Z,28.75
2022-12-18T01:55:45.748Z,26.75
2022-12-18T01:58:54.936Z,24.27
2022-12-18T02:02:03.793Z,32.42
2022-12-18T02:05:10.618Z,31.35
2022-12-18T02:08:20.440Z,38.60
2022-12-18T02:11:34.796Z,32.60
2022-12-18T02:14:42.498Z,29.77
2022-12-18T02:17:54.127Z,30.65
2022-12-18T02:21:02.117Z,24.20
2022-12-18T02:24:16.925Z,31.95
2022-12-18T02:27:25.049Z,25.75
2022-12-18T02:30:34.233Z,25.77
2022-12-18T02:33:40.287Z,29.55
2022-12-18T02:36:48.318Z,24.05
2022-12-18T02:39:53.961Z,34.80
2022-12-18T02:43:06.068Z,27.33
2022-12-18T02:46:27.731Z,26.63
2022-12-18T02:49:37.802Z,29.80
2022-12-18T02:52:48.854Z,30.75
2022-12-18T02:55:59.577Z,19.35
2022-12-18T02:59:10.683Z,15.20
2022-12-18T03:02:21.443Z,21.00
2022-12-18T03:05:28.851Z,24.92
2022-12-18T03:08:36.181Z,26.05
2022-12-18T03:11:55.994Z,25.25
2022-12-18T03:15:17.689Z,31.30
2022-12-18T03:18:25.501Z,25.83
2022-12-18T03:21:34.102Z,26.77
2022-12-18T03:24:40.730Z,28.63
2022-12-18T03:27:47.509Z,28.83
2022-12-18T03:30:58.418Z,24.65
2022-12-18T03:34:05.400Z,22.60
2022-12-18T03:37:10.970Z,20.17
2022-12-18T03:40:18.791Z,30.48
2022-12-18T03:43:27.746Z,25.20
2022-12-18T03:46:45.152Z,22.00
2022-12-18T03:49:51.209Z,19.23
2022-12-18T03:53:00.217Z,26.67
2022-12-18T03:56:06.162Z,26.83
2022-12-18T03:59:13.367Z,24.95
2022-12-18T04:02:22.295Z,19.02
2022-12-18T04:05:32.983Z,28.50
2022-12-18T04:08:39.837Z,25.92
2022-12-18T04:11:46.377Z,31.85
2022-12-18T04:14:51.701Z,18.33
2022-12-18T04:18:00.225Z,23.42
2022-12-18T04:21:05.483Z,21.95
2022-12-18T04:24:11.475Z,22.85
2022-12-18T04:27:17.945Z,21.80
2022-12-18T04:30:23.502Z,25.52
2022-12-18T04:33:31.685Z,21.35
2022-12-18T04:36:39.667Z,17.95
2022-12-18T04:39:44.825Z,26.92
2022-12-18T04:42:50.786Z,20.02
2022-12-18T04:45:56.151Z,24.58
2022-12-18T04:49:04.768Z,26.98
2022-12-18T04:52:12.883Z,22.10
2022-12-18T04:55:18.826Z,29.30
2022-12-18T04:58:24.027Z,22.27
2022-12-18T05:01:34.568Z,25.17
2022-12-18T05:04:43.372Z,20.60
2022-12-18T05:07:50.398Z,18.65
2022-12-18T05:11:02.335Z,20.23
2022-12-18T05:14:08.109Z,19.08
2022-12-18T05:17:13.456Z,21.13
2022-12-18T05:20:21.991Z,27.77
2022-12-18T05:23:28.108Z,23.42
2022-12-18T05:26:33.774Z,25.58
2022-12-18T05:29:39.676Z,22.25
2022-12-18T05:32:48.969Z,23.60
2022-12-18T05:35:57.424Z,23.60
2022-12-18T05:39:03.245Z,17.77
2022-12-18T05:42:08.322Z,25.50
2022-12-18T05:45:16.218Z,22.63
2022-12-18T05:48:25.655Z,24.63
2022-12-18T05:51:34.130Z,20.33
2022-12-18T05:54:40.140Z,20.30
2022-12-18T05:57:45.946Z,20.80
2022-12-18T06:00:51.212Z,14.95
2022-12-18T06:03:59.771Z,23.10
2022-12-18T06:07:11.099Z,18.90
2022-12-18T06:10:16.749Z,28.50
2022-12-18T06:13:22.049Z,28.05
2022-12-18T06:16:27.526Z,21.85
2022-12-18T06:19:32.851Z,24.55
2022-12-18T06:22:41.435Z,21.35
2022-12-18T06:25:46.749Z,23.38
2022-12-18T06:28:52.134Z,29.13
2022-12-18T06:31:57.158Z,28.92
2022-12-18T06:35:03.060Z,20.65
2022-12-18T06:38:11.247Z,23.45
2022-12-18T06:41:17.689Z,23.23
2022-12-18T06:44:23.170Z,29.90
2022-12-18T06:47:29.998Z,20.45
2022-12-18T06:50:35.160Z,25.85
2022-12-18T06:53:43.606Z,16.48
2022-12-18T06:56:49.156Z,27.08
2022-12-18T06:59:54.584Z,22.35
2022-12-18T07:03:00.481Z,21.45
2022-12-18T07:06:07.516Z,26.83
2022-12-18T07:09:15.383Z,23.00
2022-12-18T07:12:21.137Z,15.60
2022-12-18T07:15:28.174Z,18.30
2022-12-18T07:18:33.600Z,23.77
2022-12-18T07:21:42.215Z,14.27
2022-12-18T07:24:57.117Z,20.15
2022-12-18T07:28:02.429Z,18.65
2022-12-18T07:31:08.517Z,19.52
2022-12-18T07:34:14.241Z,17.13
2022-12-18T07:37:19.661Z,21.40
2022-12-18T07:40:28.100Z,24.08
2022-12-18T07:43:34.981Z,15.73
2022-12-18T07:46:42.931Z,29.23
2022-12-18T07:49:48.751Z,22.05
2022-12-18T07:52:53.939Z,22.42
2022-12-18T07:56:26.463Z,18.38
2022-12-18T07:59:28.345Z,14.43
2022-12-18T08:02:35.001Z,23.63
2022-12-18T08:05:40.931Z,25.95
2022-12-18T08:08:48.591Z,22.65
2022-12-18T08:11:59.193Z,21.10
2022-12-18T08:15:07.255Z,23.70
2022-12-18T08:18:14.453Z,17.90
2022-12-18T08:21:22.257Z,21.27
2022-12-18T08:24:27.525Z,13.50
2022-12-18T08:27:37.250Z,17.98
2022-12-18T08:30:43.877Z,16.98
2022-12-18T08:33:50.038Z,22.98
2022-12-18T08:36:55.109Z,18.65
2022-12-18T08:40:02.362Z,26.38
2022-12-18T08:43:24.050Z,14.30
2022-12-18T08:46:32.861Z,24.33
2022-12-18T08:49:38.724Z,25.13
2022-12-18T08:52:45.181Z,19.60
2022-12-18T08:55:50.697Z,17.85
2022-12-18T08:58:59.301Z,17.20
2022-12-18T09:02:04.317Z,13.55
2022-12-18T09:05:11.110Z,16.27
2022-12-18T09:08:19.432Z,19.63
2022-12-18T09:11:26.127Z,25.58
2022-12-18T09:14:34.107Z,26.02
2022-12-18T09:17:40.908Z,21.00
2022-12-18T09:20:47.460Z,20.05
2022-12-18T09:23:54.004Z,26.92
2022-12-18T09:27:00.128Z,29.63
2022-12-18T09:30:10.076Z,23.10
2022-12-18T09:33:15.114Z,22.17
2022-12-18T09:36:25.064Z,20.67
2022-12-18T09:39:30.282Z,24.30
2022-12-18T09:42:35.871Z,14.52
2022-12-18T09:45:46.969Z,14.70
2022-12-18T09:48:54.865Z,22.58
2022-12-18T09:52:04.331Z,14.35
2022-12-18T09:55:15.076Z,18.58
2022-12-18T09:58:23.256Z,21.10
2022-12-18T10:01:43.094Z,15.40
2022-12-18T10:04:54.366Z,12.63
2022-12-18T10:08:06.225Z,18.52
2022-12-18T10:11:21.331Z,19.38
2022-12-18T10:14:32.451Z,19.35
2022-12-18T10:17:47.759Z,16.50
2022-12-18T10:20:56.805Z,16.00
2022-12-18T10:24:07.134Z,12.07
2022-12-18T10:27:16.784Z,15.57
2022-12-18T10:30:23.382Z,17.20
2022-12-18T10:33:33.463Z,13.23
2022-12-18T10:36:41.289Z,11.45
2022-12-18T10:39:49.030Z,14.55
2022-12-18T10:43:07.055Z,15.18
2022-12-18T10:46:18.637Z,14.43
2022-12-18T10:49:30.249Z,15.98
2022-12-18T10:52:38.659Z,15.03
2022-12-18T10:55:50.069Z,21.52
2022-12-18T10:59:00.128Z,15.48
2022-12-18T11:02:05.554Z,20.75
2022-12-18T11:05:25.991Z,19.02
2022-12-18T11:08:34.716Z,21.30
2022-12-18T11:11:41.262Z,12.52
2022-12-18T11:14:47.788Z,18.85
2022-12-18T11:17:54.646Z,20.70
2022-12-18T11:21:01.993Z,12.30
2022-12-18T11:24:22.085Z,17.73
2022-12-18T11:31:47.840Z,17.02
2022-12-18T11:34:59.180Z,22.90
2022-12-18T11:38:08.703Z,20.05
2022-12-18T11:41:54.451Z,18.92
2022-12-18T11:45:28.036Z,17.10
2022-12-18T11:49:05.370Z,11.98
2022-12-18T11:57:47.099Z,14.70
2022-12-18T12:09:07.760Z,13.20
2022-12-18T12:16:44.728Z,22.55
2022-12-18T12:20:04.791Z,18.48
2022-12-18T12:23:23.519Z,16.85
2022-12-18T12:26:52.804Z,20.38
2022-12-18T12:30:05.590Z,23.05
2022-12-18T12:33:23.056Z,18.75
2022-12-18T12:36:35.371Z,25.42
2022-12-18T12:39:46.306Z,22.40
2022-12-18T12:43:07.174Z,15.55
2022-12-18T12:46:13.996Z,21.80
2022-12-18T12:49:22.493Z,22.80
2022-12-18T12:52:32.109Z,26.30
2022-12-18T12:55:40.384Z,24.95
2022-12-18T12:58:50.439Z,19.45
2022-12-18T13:01:58.739Z,19.05
2022-12-18T13:05:18.215Z,23.77
2022-12-18T13:08:27.578Z,19.27
2022-12-18T13:11:56.318Z,25.55
2022-12-18T13:15:16.299Z,20.15
2022-12-18T13:18:23.948Z,19.77
2022-12-18T13:21:32.673Z,29.17
2022-12-18T13:24:39.117Z,19.25
2022-12-18T13:28:01.186Z,25.05
2022-12-18T13:31:08.854Z,24.55
2022-12-18T13:34:26.158Z,25.90
2022-12-18T13:37:54.881Z,17.23
2022-12-18T13:41:01.065Z,22.42
2022-12-18T13:44:15.086Z,26.33
2022-12-18T13:47:29.992Z,19.65
2022-12-18T13:50:37.457Z,21.35
2022-12-18T13:53:47.638Z,16.75
2022-12-18T13:56:54.127Z,28.45
2022-12-18T14:00:04.470Z,18.83
2022-12-18T14:03:22.576Z,16.23
2022-12-18T14:06:28.367Z,23.95
2022-12-18T14:09:39.615Z,23.08
2022-12-18T14:13:03.212Z,21.20
2022-12-18T14:16:10.473Z,20.48
2022-12-18T14:19:18.149Z,19.80
2022-12-18T14:22:28.937Z,19.40
2022-12-18T14:25:36.664Z,13.60
2022-12-18T14:28:47.443Z,16.30
2022-12-18T14:32:11.821Z,17.30
2022-12-18T14:35:19.337Z,18.10
2022-12-18T14:38:27.623Z,17.90
2022-12-18T14:41:35.716Z,18.50
2022-12-18T14:45:05.098Z,19.17
2022-12-18T14:48:11.934Z,22.98
2022-12-18T14:51:20.677Z,15.52
2022-12-18T14:54:41.610Z,17.58
2022-12-18T14:57:53.225Z,20.02
2022-12-18T15:00:59.446Z,21.55
2022-12-18T15:04:05.741Z,22.27
2022-12-18T15:07:14.003Z,21.40
2022-12-18T15:10:20.221Z,14.77
2022-12-18T15:13:28.984Z,24.48
2022-12-18T15:16:37.346Z,18.35
2022-12-18T15:19:44.608Z,20.73
2022-12-18T15:22:51.679Z,23.73
2022-12-18T15:26:01.799Z,25.42
2022-12-18T15:29:15.515Z,10.52
2022-12-18T15:32:23.987Z,16.65
2022-12-18T15:35:29.430Z,24.00
2022-12-18T15:38:35.949Z,21.63
2022-12-18T15:42:05.489Z,21.17
2022-12-18T15:45:18.370Z,21.38
2022-12-18T15:48:26.319Z,20.38
2022-12-18T15:51:38.567Z,19.45
2022-12-18T15:54:55.981Z,22.80
2022-12-18T15:58:01.759Z,17.42
2022-12-18T16:01:11.632Z,17.63
2022-12-18T16:04:23.802Z,14.20
2022-12-18T16:07:30.916Z,13.80
2022-12-18T16:10:36.975Z,19.77
2022-12-18T16:13:42.990Z,13.82
2022-12-18T16:16:52.514Z,17.83
2022-12-18T16:19:59.147Z,18.85
2022-12-18T16:23:05.855Z,19.38
2022-12-18T16:26:13.028Z,17.88
2022-12-18T16:29:32.491Z,20.25
2022-12-18T16:32:41.938Z,15.02
2022-12-18T16:35:55.056Z,19.05
2022-12-18T16:39:00.933Z,15.05
2022-12-18T16:42:07.228Z,17.02
2022-12-18T16:45:22.409Z,13.05
2022-12-18T16:48:32.149Z,14.07
2022-12-18T16:51:38.667Z,16.77
2022-12-18T16:54:45.535Z,15.45
2022-12-18T16:57:50.516Z,19.17
2022-12-18T17:00:58.154Z,26.30
2022-12-18T17:04:10.935Z,21.33
2022-12-18T17:07:17.874Z,13.77
2022-12-18T17:10:23.144Z,18.40
2022-12-18T17:13:30.590Z,21.98
2022-12-18T17:16:40.132Z,12.55
2022-12-18T17:19:52.250Z,21.77
2022-12-18T17:22:58.161Z,20.05
2022-12-18T17:26:19.666Z,16.30
2022-12-18T17:29:25.226Z,20.90
2022-12-18T17:32:31.560Z,20.10
2022-12-18T17:35:41.182Z,24.75
2022-12-18T17:38:48.020Z,14.55
2022-12-18T17:41:53.615Z,20.40
2022-12-18T17:45:00.548Z,16.52
2022-12-18T17:48:05.837Z,17.05
2022-12-18T17:51:14.960Z,23.42
2022-12-18T17:54:20.197Z,21.00
2022-12-18T17:57:26.191Z,17.15
2022-12-18T18:00:31.505Z,18.25
2022-12-18T18:03:42.153Z,19.30
2022-12-18T18:06:53.383Z,22.48
2022-12-18T18:10:11.154Z,18.70
2022-12-18T18:13:47.206Z,22.13
2022-12-18T18:16:55.386Z,17.15
2022-12-18T18:20:02.076Z,22.38
2022-12-18T18:23:11.787Z,15.95
2022-12-18T18:26:17.199Z,15.45
2022-12-18T18:29:26.891Z,13.60
2022-12-18T18:32:34.573Z,13.07
2022-12-18T18:35:53.772Z,21.73
2022-12-18T18:39:06.382Z,26.15
2022-12-18T18:45:24.537Z,20.77
2022-12-18T18:48:34.657Z,23.92
2022-12-18T18:51:44.124Z,21.08
2022-12-18T18:55:12.343Z,17.70
2022-12-18T18:58:18.535Z,17.90
2022-12-18T19:01:25.214Z,19.60
2022-12-18T19:04:31.401Z,23.33
2022-12-18T19:07:37.315Z,23.85
2022-12-18T19:10:45.645Z,17.45
2022-12-18T19:13:49.646Z,22.05
2022-12-18T19:16:55.632Z,16.85
2022-12-18T19:20:02.043Z,26.08
2022-12-18T19:23:09.008Z,23.45
2022-12-18T19:26:28.857Z,25.38
2022-12-18T19:29:38.637Z,23.40
2022-12-18T19:32:46.338Z,27.85
2022-12-18T19:35:57.777Z,23.55
2022-12-18T19:39:05.225Z,21.10
2022-12-18T19:42:17.893Z,25.55
2022-12-18T19:45:29.413Z,21.33
2022-12-18T19:48:35.488Z,18.05
2022-12-18T19:51:56.859Z,20.25
2022-12-18T19:55:10.277Z,27.85
2022-12-18T20:01:31.392Z,25.80
2022-12-18T20:04:39.366Z,23.48
2022-12-18T20:07:44.699Z,26.08
2022-12-18T20:10:53.113Z,29.58
2022-12-18T20:14:00.176Z,22.60
2022-12-18T20:17:08.964Z,23.65
2022-12-18T20:20:15.130Z,24.67
2022-12-18T20:23:23.733Z,30.73
2022-12-18T20:26:28.948Z,21.58
2022-12-18T20:29:34.852Z,16.70
2022-12-18T20:32:45.118Z,20.05
2022-12-18T20:35:50.988Z,24.70
2022-12-18T20:39:16.764Z,27.25
2022-12-18T20:42:25.425Z,25.55
2022-12-18T20:45:32.957Z,25.15
2022-12-18T20:48:45.630Z,26.05
2022-12-18T20:51:53.357Z,17.92
2022-12-18T20:55:01.524Z,22.45
2022-12-18T20:58:08.605Z,23.95
2022-12-18T21:01:21.915Z,23.15
2022-12-18T21:04:31.233Z,22.02
2022-12-18T21:07:37.590Z,23.80
2022-12-18T21:10:48.345Z,24.52
2022-12-18T21:14:00.466Z,19.88
2022-12-18T21:17:06.074Z,29.67
2022-12-18T21:20:17.808Z,31.40
2022-12-18T21:23:28.482Z,27.13
2022-12-18T21:26:43.418Z,23.05
2022-12-18T21:29:53.570Z,18.00
2022-12-18T21:33:01.901Z,13.55
2022-12-18T21:36:11.101Z,27.33
2022-12-18T21:39:20.274Z,23.33
2022-12-18T21:42:45.233Z,26.48
2022-12-18T21:45:51.236Z,29.52
2022-12-18T21:49:01.244Z,27.52
2022-12-18T21:52:14.753Z,24.08
2022-12-18T21:55:22.365Z,30.50
2022-12-18T21:58:33.227Z,26.17
2022-12-18T22:01:39.641Z,29.98
2022-12-18T22:04:49.145Z,27.40
2022-12-18T22:08:01.807Z,23.35
2022-12-18T22:14:20.338Z,23.75
2022-12-18T22:17:26.173Z,28.00
2022-12-18T22:20:32.198Z,36.60
2022-12-18T22:24:06.188Z,27.23
2022-12-18T22:27:14.173Z,32.05
2022-12-18T22:30:16.914Z,29.33
2022-12-18T22:33:22.063Z,25.95
2022-12-18T22:36:30.186Z,28.08
2022-12-18T22:39:38.770Z,18.00
2022-12-18T22:42:44.868Z,22.83
2022-12-18T22:45:55.595Z,20.63
2022-12-18T22:49:03.634Z,27.35
2022-12-18T22:52:09.747Z,22.00
2022-12-18T22:55:18.656Z,23.80
2022-12-18T22:58:24.141Z,24.77
2022-12-18T23:01:32.983Z,23.48
2022-12-18T23:04:40.714Z,31.50
2022-12-18T23:07:48.747Z,28.25
2022-12-18T23:11:02.506Z,32.15
2022-12-18T23:14:08.225Z,23.65
2022-12-18T23:17:14.019Z,26.52
2022-12-18T23:20:21.742Z,33.53
2022-12-18T23:23:27.065Z,29.92
2022-12-18T23:26:36.297Z,30.45
2022-12-18T23:29:41.600Z,27.20
2022-12-18T23:32:47.730Z,27.48
2022-12-18T23:35:55.733Z,30.90
2022-12-18T23:39:02.500Z,35.70
2022-12-18T23:42:10.534Z,39.70
2022-12-18T23:45:18.598Z,30.40
2022-12-18T23:48:26.274Z,25.83
2022-12-18T23:51:32.742Z,30.63
2022-12-18T23:54:39.708Z,28.95
2022-12-18T23:57:49.609Z,32.70
